WMKJ METAR and TAF | Updated Today

WMKJ METAR

Senai International Airport

Observation time: 24 min. ago

WMKJ 032300Z VRB03KT 8000 FEW006 24/22 Q1011

Need help? Read our tutorial on how to read METARs or read the parsed version below.

Senai International Airport (WMKJ) METAR

  • Weather conditions on Fri, 03 Dec 2021 23:00:00 +0000 (24 min. ago):
  • Present conditions: Dry
  • Clouds: A few at 183 meters
  • Visibility: 8000 meters
  • Wind: Variable at 3 knots
  • Temperature: 24 celsius
  • Dew point: 22 celsius
  • Pressure: 1011 millibars
  • Remarks: None


Useful to know...

WMKJ TAF

Senai International Airport

TAF WMKJ 031700Z 0318/0418 VRB02KT 9999 FEW022 PROB30 TEMPO 0408/0412 01006KT 4000 TSRA FEW016CB SCT018
Observation time: 6:24 hr. ago
Need help? Read our tutorial on how to read TAFs or read the parsed version below.

Parsed version of TAF for Senai International Airport (WMKJ)

  • From 03 December at 18:00 UTC, to day 04 of the month at 18:00 UTC
  • Clouds: A few at 671 meters
  • Visibility: Greater than 10 km
  • Wind: Variable at 2
  • Expected to arise temporarily, from 04 December at 08:00 UTC, to day 04 of the month at 12:00 UTC
    Probability of 30%
  • Clouds: A few at 488 meters, cumulonimbus; scattered at 549 meters
  • Visibility: 4000 meters
  • Wind: 10 degrees at 6
  • Other: Thunderstorms rain